sensor_id;sensor_type;location;lat;lon;timestamp;temperature;humidity
47382;DHT22;33128;51.580;5.170;2022-10-04T00:02:21;13.60;99.90
47382;DHT22;33128;51.580;5.170;2022-10-04T00:04:53;13.60;99.90
47382;DHT22;33128;51.580;5.170;2022-10-04T00:07:23;13.60;99.90
47382;DHT22;33128;51.580;5.170;2022-10-04T00:09:51;13.60;99.90
47382;DHT22;33128;51.580;5.170;2022-10-04T00:12:32;13.60;99.90
47382;DHT22;33128;51.580;5.170;2022-10-04T00:15:01;13.60;99.90
47382;DHT22;33128;51.580;5.170;2022-10-04T00:17:30;13.60;99.90
47382;DHT22;33128;51.580;5.170;2022-10-04T00:19:59;13.60;99.90
47382;DHT22;33128;51.580;5.170;2022-10-04T00:22:26;13.60;99.90
47382;DHT22;33128;51.580;5.170;2022-10-04T00:30:35;13.50;99.90
47382;DHT22;33128;51.580;5.170;2022-10-04T00:33:02;13.50;99.90
47382;DHT22;33128;51.580;5.170;2022-10-04T00:37:57;13.50;99.90
47382;DHT22;33128;51.580;5.170;2022-10-04T00:40:27;13.40;99.90
47382;DHT22;33128;51.580;5.170;2022-10-04T00:42:57;13.40;99.90
47382;DHT22;33128;51.580;5.170;2022-10-04T00:48:09;13.40;99.90
47382;DHT22;33128;51.580;5.170;2022-10-04T00:50:45;13.10;99.90
47382;DHT22;33128;51.580;5.170;2022-10-04T00:53:57;12.60;99.90
47382;DHT22;33128;51.580;5.170;2022-10-04T00:56:03;12.50;99.90
47382;DHT22;33128;51.580;5.170;2022-10-04T00:58:33;12.40;99.90
47382;DHT22;33128;51.580;5.170;2022-10-04T01:00:59;12.30;99.90
47382;DHT22;33128;51.580;5.170;2022-10-04T01:03:29;12.30;99.90
47382;DHT22;33128;51.580;5.170;2022-10-04T01:05:57;12.20;99.90
47382;DHT22;33128;51.580;5.170;2022-10-04T01:13:22;12.20;99.90
47382;DHT22;33128;51.580;5.170;2022-10-04T01:15:50;12.10;99.90
47382;DHT22;33128;51.580;5.170;2022-10-04T01:26:04;11.90;99.90
47382;DHT22;33128;51.580;5.170;2022-10-04T01:28:30;11.90;99.90
47382;DHT22;33128;51.580;5.170;2022-10-04T01:30:56;11.90;99.90
47382;DHT22;33128;51.580;5.170;2022-10-04T01:33:22;11.90;99.90
47382;DHT22;33128;51.580;5.170;2022-10-04T01:35:49;11.90;99.90
47382;DHT22;33128;51.580;5.170;2022-10-04T01:38:15;11.80;99.90
47382;DHT22;33128;51.580;5.170;2022-10-04T01:40:49;11.70;99.90
47382;DHT22;33128;51.580;5.170;2022-10-04T01:43:17;11.80;99.90
47382;DHT22;33128;51.580;5.170;2022-10-04T01:45:47;11.70;99.90
47382;DHT22;33128;51.580;5.170;2022-10-04T01:48:15;11.70;99.90
47382;DHT22;33128;51.580;5.170;2022-10-04T01:50:49;11.60;99.90
47382;DHT22;33128;51.580;5.170;2022-10-04T01:53:26;11.60;99.90
47382;DHT22;33128;51.580;5.170;2022-10-04T01:56:36;11.50;99.90
47382;DHT22;33128;51.580;5.170;2022-10-04T01:58:46;11.50;99.90
47382;DHT22;33128;51.580;5.170;2022-10-04T02:01:22;11.40;99.90
47382;DHT22;33128;51.580;5.170;2022-10-04T02:03:51;11.40;99.90
47382;DHT22;33128;51.580;5.170;2022-10-04T02:06:20;11.30;99.90
47382;DHT22;33128;51.580;5.170;2022-10-04T02:08:47;11.30;99.90
47382;DHT22;33128;51.580;5.170;2022-10-04T02:11:17;11.30;99.90
47382;DHT22;33128;51.580;5.170;2022-10-04T02:13:47;11.30;99.90
47382;DHT22;33128;51.580;5.170;2022-10-04T02:16:14;11.30;99.90
47382;DHT22;33128;51.580;5.170;2022-10-04T02:18:40;11.30;99.90
47382;DHT22;33128;51.580;5.170;2022-10-04T02:21:08;11.30;99.90
47382;DHT22;33128;51.580;5.170;2022-10-04T02:23:35;11.30;99.90
47382;DHT22;33128;51.580;5.170;2022-10-04T02:26:05;11.20;99.90
47382;DHT22;33128;51.580;5.170;2022-10-04T02:28:31;11.20;99.90
47382;DHT22;33128;51.580;5.170;2022-10-04T02:30:57;11.10;99.90
47382;DHT22;33128;51.580;5.170;2022-10-04T02:33:48;11.10;99.90
47382;DHT22;33128;51.580;5.170;2022-10-04T02:36:14;11.10;99.90
47382;DHT22;33128;51.580;5.170;2022-10-04T02:38:45;11.10;99.90
47382;DHT22;33128;51.580;5.170;2022-10-04T02:46:32;10.90;99.90
47382;DHT22;33128;51.580;5.170;2022-10-04T02:49:01;10.90;99.90
47382;DHT22;33128;51.580;5.170;2022-10-04T02:51:33;10.90;99.90
47382;DHT22;33128;51.580;5.170;2022-10-04T02:54:25;10.90;99.90
47382;DHT22;33128;51.580;5.170;2022-10-04T02:56:52;10.90;99.90
47382;DHT22;33128;51.580;5.170;2022-10-04T02:59:18;10.90;99.90
47382;DHT22;33128;51.580;5.170;2022-10-04T03:01:51;10.80;99.90
47382;DHT22;33128;51.580;5.170;2022-10-04T03:04:17;10.80;99.90
47382;DHT22;33128;51.580;5.170;2022-10-04T03:06:45;10.80;99.90
47382;DHT22;33128;51.580;5.170;2022-10-04T03:09:11;10.80;99.90
47382;DHT22;33128;51.580;5.170;2022-10-04T03:11:38;10.70;99.90
47382;DHT22;33128;51.580;5.170;2022-10-04T03:14:10;10.70;99.90
47382;DHT22;33128;51.580;5.170;2022-10-04T03:16:38;10.70;99.90
47382;DHT22;33128;51.580;5.170;2022-10-04T03:19:05;10.70;99.90
47382;DHT22;33128;51.580;5.170;2022-10-04T03:21:31;10.60;99.90
47382;DHT22;33128;51.580;5.170;2022-10-04T03:23:59;10.60;99.90
47382;DHT22;33128;51.580;5.170;2022-10-04T03:28:55;10.70;99.90
47382;DHT22;33128;51.580;5.170;2022-10-04T03:31:21;10.70;99.90
47382;DHT22;33128;51.580;5.170;2022-10-04T03:33:47;10.70;99.90
47382;DHT22;33128;51.580;5.170;2022-10-04T03:36:14;10.60;99.90
47382;DHT22;33128;51.580;5.170;2022-10-04T03:38:43;10.60;99.90
47382;DHT22;33128;51.580;5.170;2022-10-04T03:41:09;10.50;99.90
47382;DHT22;33128;51.580;5.170;2022-10-04T03:43:36;10.50;99.90
47382;DHT22;33128;51.580;5.170;2022-10-04T03:46:03;10.50;99.90
47382;DHT22;33128;51.580;5.170;2022-10-04T03:48:32;10.60;99.90
47382;DHT22;33128;51.580;5.170;2022-10-04T03:50:58;10.60;99.90
47382;DHT22;33128;51.580;5.170;2022-10-04T03:53:26;10.50;99.90
47382;DHT22;33128;51.580;5.170;2022-10-04T03:55:53;10.60;99.90
47382;DHT22;33128;51.580;5.170;2022-10-04T03:58:18;11.00;99.90
47382;DHT22;33128;51.580;5.170;2022-10-04T04:00:52;11.30;99.90
47382;DHT22;33128;51.580;5.170;2022-10-04T04:03:21;11.50;99.90
47382;DHT22;33128;51.580;5.170;2022-10-04T04:05:51;11.60;99.90
47382;DHT22;33128;51.580;5.170;2022-10-04T04:08:24;11.70;99.90
47382;DHT22;33128;51.580;5.170;2022-10-04T04:10:52;11.80;99.90
47382;DHT22;33128;51.580;5.170;2022-10-04T04:13:42;11.80;99.90
47382;DHT22;33128;51.580;5.170;2022-10-04T04:16:07;12.00;99.90
47382;DHT22;33128;51.580;5.170;2022-10-04T04:18:34;12.00;99.90
47382;DHT22;33128;51.580;5.170;2022-10-04T04:21:00;12.10;99.90
47382;DHT22;33128;51.580;5.170;2022-10-04T04:23:34;12.20;99.90
47382;DHT22;33128;51.580;5.170;2022-10-04T04:28:45;12.30;99.90
47382;DHT22;33128;51.580;5.170;2022-10-04T04:34:00;12.40;99.90
47382;DHT22;33128;51.580;5.170;2022-10-04T04:36:27;12.40;99.90
47382;DHT22;33128;51.580;5.170;2022-10-04T04:38:53;12.50;99.90
47382;DHT22;33128;51.580;5.170;2022-10-04T04:41:37;12.50;99.90
47382;DHT22;33128;51.580;5.170;2022-10-04T04:44:08;12.50;99.90
47382;DHT22;33128;51.580;5.170;2022-10-04T04:46:37;12.50;99.90
47382;DHT22;33128;51.580;5.170;2022-10-04T04:49:03;12.60;99.90
47382;DHT22;33128;51.580;5.170;2022-10-04T04:51:29;12.60;99.90
47382;DHT22;33128;51.580;5.170;2022-10-04T04:53:55;12.60;99.90
47382;DHT22;33128;51.580;5.170;2022-10-04T04:56:23;12.60;99.90
47382;DHT22;33128;51.580;5.170;2022-10-04T04:58:50;12.60;99.90
47382;DHT22;33128;51.580;5.170;2022-10-04T05:01:23;12.70;99.90
47382;DHT22;33128;51.580;5.170;2022-10-04T05:04:03;12.70;99.90
47382;DHT22;33128;51.580;5.170;2022-10-04T05:06:29;12.80;99.90
47382;DHT22;33128;51.580;5.170;2022-10-04T05:08:55;12.80;99.90
47382;DHT22;33128;51.580;5.170;2022-10-04T05:11:21;12.80;99.90
47382;DHT22;33128;51.580;5.170;2022-10-04T05:13:50;12.80;99.90
47382;DHT22;33128;51.580;5.170;2022-10-04T05:16:21;12.80;99.90
47382;DHT22;33128;51.580;5.170;2022-10-04T05:18:58;12.80;99.90
47382;DHT22;33128;51.580;5.170;2022-10-04T05:21:28;12.80;99.90
47382;DHT22;33128;51.580;5.170;2022-10-04T05:23:55;12.80;99.90
47382;DHT22;33128;51.580;5.170;2022-10-04T05:26:26;12.80;99.90
47382;DHT22;33128;51.580;5.170;2022-10-04T05:28:54;12.80;99.90
47382;DHT22;33128;51.580;5.170;2022-10-04T05:34:05;12.90;99.90
47382;DHT22;33128;51.580;5.170;2022-10-04T05:36:44;12.90;99.90
47382;DHT22;33128;51.580;5.170;2022-10-04T05:39:25;12.90;99.90
47382;DHT22;33128;51.580;5.170;2022-10-04T05:42:09;12.90;99.90
47382;DHT22;33128;51.580;5.170;2022-10-04T05:44:36;12.90;99.90
47382;DHT22;33128;51.580;5.170;2022-10-04T05:47:10;12.90;99.90
47382;DHT22;33128;51.580;5.170;2022-10-04T05:49:39;12.90;99.90
47382;DHT22;33128;51.580;5.170;2022-10-04T05:52:27;12.90;99.90
47382;DHT22;33128;51.580;5.170;2022-10-04T06:03:23;12.90;99.90
47382;DHT22;33128;51.580;5.170;2022-10-04T06:05:55;12.90;99.90
47382;DHT22;33128;51.580;5.170;2022-10-04T06:11:02;12.90;99.90
47382;DHT22;33128;51.580;5.170;2022-10-04T06:13:52;12.90;99.90
47382;DHT22;33128;51.580;5.170;2022-10-04T06:16:28;12.90;99.90
47382;DHT22;33128;51.580;5.170;2022-10-04T06:21:27;13.00;99.90
47382;DHT22;33128;51.580;5.170;2022-10-04T06:23:55;13.00;99.90
47382;DHT22;33128;51.580;5.170;2022-10-04T06:26:28;13.00;99.90
47382;DHT22;33128;51.580;5.170;2022-10-04T06:28:58;13.00;99.90
47382;DHT22;33128;51.580;5.170;2022-10-04T06:39:17;13.00;99.90
47382;DHT22;33128;51.580;5.170;2022-10-04T06:42:02;13.00;99.90
47382;DHT22;33128;51.580;5.170;2022-10-04T06:44:37;13.00;99.90
47382;DHT22;33128;51.580;5.170;2022-10-04T06:57:22;13.00;99.90
47382;DHT22;33128;51.580;5.170;2022-10-04T07:05:26;13.00;99.90
47382;DHT22;33128;51.580;5.170;2022-10-04T07:08:18;13.20;99.90
47382;DHT22;33128;51.580;5.170;2022-10-04T07:21:41;13.20;99.90
47382;DHT22;33128;51.580;5.170;2022-10-04T07:24:11;13.20;99.90
47382;DHT22;33128;51.580;5.170;2022-10-04T07:26:44;13.20;99.90
47382;DHT22;33128;51.580;5.170;2022-10-04T07:29:13;13.20;99.90
47382;DHT22;33128;51.580;5.170;2022-10-04T07:31:47;13.20;99.90
47382;DHT22;33128;51.580;5.170;2022-10-04T07:34:25;13.30;99.90
47382;DHT22;33128;51.580;5.170;2022-10-04T07:36:53;13.30;99.90
47382;DHT22;33128;51.580;5.170;2022-10-04T07:39:24;13.30;99.90
47382;DHT22;33128;51.580;5.170;2022-10-04T07:44:35;13.40;99.90
47382;DHT22;33128;51.580;5.170;2022-10-04T07:47:03;13.40;99.90
47382;DHT22;33128;51.580;5.170;2022-10-04T07:49:35;13.40;99.90
47382;DHT22;33128;51.580;5.170;2022-10-04T07:56:58;13.40;99.90
47382;DHT22;33128;51.580;5.170;2022-10-04T07:59:31;13.50;99.90
47382;DHT22;33128;51.580;5.170;2022-10-04T08:02:10;13.50;99.90
47382;DHT22;33128;51.580;5.170;2022-10-04T08:05:01;13.50;99.90
47382;DHT22;33128;51.580;5.170;2022-10-04T08:10:23;13.60;99.90
47382;DHT22;33128;51.580;5.170;2022-10-04T08:12:52;13.60;99.90
47382;DHT22;33128;51.580;5.170;2022-10-04T08:17:55;13.60;99.90
47382;DHT22;33128;51.580;5.170;2022-10-04T08:25:26;13.70;99.90
47382;DHT22;33128;51.580;5.170;2022-10-04T08:33:06;13.90;99.90
47382;DHT22;33128;51.580;5.170;2022-10-04T08:35:40;13.90;99.90
47382;DHT22;33128;51.580;5.170;2022-10-04T09:04:59;14.40;99.90
47382;DHT22;33128;51.580;5.170;2022-10-04T09:07:53;14.40;99.90
47382;DHT22;33128;51.580;5.170;2022-10-04T09:10:29;14.40;99.90
47382;DHT22;33128;51.580;5.170;2022-10-04T09:23:12;14.60;99.90
47382;DHT22;33128;51.580;5.170;2022-10-04T09:28:13;14.70;99.90
47382;DHT22;33128;51.580;5.170;2022-10-04T09:30:51;14.70;99.90
47382;DHT22;33128;51.580;5.170;2022-10-04T09:38:32;14.90;99.90
47382;DHT22;33128;51.580;5.170;2022-10-04T09:52:04;15.00;99.90
47382;DHT22;33128;51.580;5.170;2022-10-04T09:55:21;15.10;99.90
47382;DHT22;33128;51.580;5.170;2022-10-04T10:00:08;15.10;99.90
47382;DHT22;33128;51.580;5.170;2022-10-04T10:07:45;15.20;99.90
47382;DHT22;33128;51.580;5.170;2022-10-04T10:27:06;15.50;99.90
47382;DHT22;33128;51.580;5.170;2022-10-04T10:40:06;15.80;99.90
47382;DHT22;33128;51.580;5.170;2022-10-04T10:55:31;16.10;99.90
47382;DHT22;33128;51.580;5.170;2022-10-04T11:11:08;16.40;99.90
47382;DHT22;33128;51.580;5.170;2022-10-04T11:24:45;16.80;99.90
47382;DHT22;33128;51.580;5.170;2022-10-04T11:30:06;16.90;99.90
47382;DHT22;33128;51.580;5.170;2022-10-04T11:32:45;16.90;99.90
47382;DHT22;33128;51.580;5.170;2022-10-04T11:35:30;17.00;99.90
47382;DHT22;33128;51.580;5.170;2022-10-04T12:25:45;18.20;99.90
47382;DHT22;33128;51.580;5.170;2022-10-04T12:43:33;18.80;99.90
47382;DHT22;33128;51.580;5.170;2022-10-04T12:48:40;19.00;99.90
47382;DHT22;33128;51.580;5.170;2022-10-04T12:51:24;19.10;99.90
47382;DHT22;33128;51.580;5.170;2022-10-04T12:53:57;19.20;99.90
47382;DHT22;33128;51.580;5.170;2022-10-04T12:56:44;19.30;99.90
47382;DHT22;33128;51.580;5.170;2022-10-04T12:59:15;19.40;99.90
47382;DHT22;33128;51.580;5.170;2022-10-04T13:04:27;19.90;99.90
47382;DHT22;33128;51.580;5.170;2022-10-04T13:17:21;21.00;99.90
47382;DHT22;33128;51.580;5.170;2022-10-04T13:22:29;21.20;99.90
47382;DHT22;33128;51.580;5.170;2022-10-04T13:45:33;21.60;99.90
47382;DHT22;33128;51.580;5.170;2022-10-04T13:48:09;21.60;99.90
47382;DHT22;33128;51.580;5.170;2022-10-04T13:56:04;21.90;99.90
47382;DHT22;33128;51.580;5.170;2022-10-04T13:59:01;21.70;99.90
47382;DHT22;33128;51.580;5.170;2022-10-04T14:12:15;21.90;99.90
47382;DHT22;33128;51.580;5.170;2022-10-04T14:23:10;22.10;99.90
47382;DHT22;33128;51.580;5.170;2022-10-04T14:34:17;21.80;99.90
47382;DHT22;33128;51.580;5.170;2022-10-04T14:42:01;21.70;99.90
47382;DHT22;33128;51.580;5.170;2022-10-04T14:54:51;21.90;99.90
47382;DHT22;33128;51.580;5.170;2022-10-04T14:57:24;21.70;99.90
47382;DHT22;33128;51.580;5.170;2022-10-04T15:07:28;21.70;99.90
47382;DHT22;33128;51.580;5.170;2022-10-04T15:12:40;21.40;99.90
47382;DHT22;33128;51.580;5.170;2022-10-04T15:20:19;20.90;99.90
47382;DHT22;33128;51.580;5.170;2022-10-04T15:23:08;20.80;99.90
47382;DHT22;33128;51.580;5.170;2022-10-04T15:25:37;20.80;99.90
47382;DHT22;33128;51.580;5.170;2022-10-04T15:28:07;20.70;99.90
47382;DHT22;33128;51.580;5.170;2022-10-04T15:30:55;20.60;99.90
47382;DHT22;33128;51.580;5.170;2022-10-04T15:33:28;20.50;99.90
47382;DHT22;33128;51.580;5.170;2022-10-04T15:45:54;20.10;99.90
47382;DHT22;33128;51.580;5.170;2022-10-04T15:48:29;20.10;99.90
47382;DHT22;33128;51.580;5.170;2022-10-04T15:53:41;20.00;99.90
47382;DHT22;33128;51.580;5.170;2022-10-04T15:56:10;19.90;99.90
47382;DHT22;33128;51.580;5.170;2022-10-04T15:58:54;19.90;99.90
47382;DHT22;33128;51.580;5.170;2022-10-04T16:06:52;19.80;99.90
47382;DHT22;33128;51.580;5.170;2022-10-04T16:09:35;19.80;99.90
47382;DHT22;33128;51.580;5.170;2022-10-04T16:14:33;19.70;99.90
47382;DHT22;33128;51.580;5.170;2022-10-04T16:24:53;19.50;99.90
47382;DHT22;33128;51.580;5.170;2022-10-04T16:29:54;19.40;99.90
47382;DHT22;33128;51.580;5.170;2022-10-04T16:32:28;19.30;99.90
47382;DHT22;33128;51.580;5.170;2022-10-04T16:34:55;19.30;99.90
47382;DHT22;33128;51.580;5.170;2022-10-04T16:39:50;19.20;99.90
47382;DHT22;33128;51.580;5.170;2022-10-04T16:49:55;19.40;99.90
47382;DHT22;33128;51.580;5.170;2022-10-04T16:58:27;19.30;99.90
47382;DHT22;33128;51.580;5.170;2022-10-04T17:00:31;19.10;99.90
47382;DHT22;33128;51.580;5.170;2022-10-04T17:08:23;19.10;99.90
47382;DHT22;33128;51.580;5.170;2022-10-04T17:16:03;19.00;99.90
47382;DHT22;33128;51.580;5.170;2022-10-04T17:21:02;18.90;99.90
47382;DHT22;33128;51.580;5.170;2022-10-04T17:28:46;18.70;99.90
47382;DHT22;33128;51.580;5.170;2022-10-04T17:31:18;18.60;99.90
47382;DHT22;33128;51.580;5.170;2022-10-04T17:36:34;18.60;99.90
47382;DHT22;33128;51.580;5.170;2022-10-04T17:51:53;18.30;99.90
47382;DHT22;33128;51.580;5.170;2022-10-04T17:57:35;18.30;99.90
47382;DHT22;33128;51.580;5.170;2022-10-04T18:05:02;18.10;99.90
47382;DHT22;33128;51.580;5.170;2022-10-04T18:07:35;18.00;99.90
47382;DHT22;33128;51.580;5.170;2022-10-04T18:10:02;18.00;99.90
47382;DHT22;33128;51.580;5.170;2022-10-04T18:12:37;17.90;99.90
47382;DHT22;33128;51.580;5.170;2022-10-04T18:17:50;17.80;99.90
47382;DHT22;33128;51.580;5.170;2022-10-04T18:22:57;17.80;99.90
47382;DHT22;33128;51.580;5.170;2022-10-04T18:25:27;17.70;99.90
47382;DHT22;33128;51.580;5.170;2022-10-04T18:30:32;17.70;99.90
47382;DHT22;33128;51.580;5.170;2022-10-04T18:32:58;17.70;99.90
47382;DHT22;33128;51.580;5.170;2022-10-04T18:35:27;17.60;99.90
47382;DHT22;33128;51.580;5.170;2022-10-04T18:37:57;17.60;99.90
47382;DHT22;33128;51.580;5.170;2022-10-04T18:40:40;17.60;99.90
47382;DHT22;33128;51.580;5.170;2022-10-04T18:43:28;17.60;99.90
47382;DHT22;33128;51.580;5.170;2022-10-04T18:46:02;17.60;99.90
47382;DHT22;33128;51.580;5.170;2022-10-04T18:54:08;17.50;99.90
47382;DHT22;33128;51.580;5.170;2022-10-04T18:56:40;17.50;99.90
47382;DHT22;33128;51.580;5.170;2022-10-04T19:07:18;17.40;99.90
47382;DHT22;33128;51.580;5.170;2022-10-04T19:10:09;17.40;99.90
47382;DHT22;33128;51.580;5.170;2022-10-04T19:12:46;17.40;99.90
47382;DHT22;33128;51.580;5.170;2022-10-04T19:18:34;17.30;99.90
47382;DHT22;33128;51.580;5.170;2022-10-04T19:20:39;17.30;99.90
47382;DHT22;33128;51.580;5.170;2022-10-04T19:25:33;17.30;99.90
47382;DHT22;33128;51.580;5.170;2022-10-04T19:30:38;17.30;99.90
47382;DHT22;33128;51.580;5.170;2022-10-04T19:33:11;17.30;99.90
47382;DHT22;33128;51.580;5.170;2022-10-04T19:35:42;17.30;99.90
47382;DHT22;33128;51.580;5.170;2022-10-04T19:38:31;17.30;99.90
47382;DHT22;33128;51.580;5.170;2022-10-04T19:41:04;17.20;99.90
47382;DHT22;33128;51.580;5.170;2022-10-04T19:48:53;17.20;99.90
47382;DHT22;33128;51.580;5.170;2022-10-04T19:51:25;17.10;99.90
47382;DHT22;33128;51.580;5.170;2022-10-04T19:53:53;17.10;99.90
47382;DHT22;33128;51.580;5.170;2022-10-04T19:56:26;17.10;99.90
47382;DHT22;33128;51.580;5.170;2022-10-04T19:58:56;17.10;99.90
47382;DHT22;33128;51.580;5.170;2022-10-04T20:01:25;17.10;99.90
47382;DHT22;33128;51.580;5.170;2022-10-04T20:03:51;17.10;99.90
47382;DHT22;33128;51.580;5.170;2022-10-04T20:06:57;17.10;99.90
47382;DHT22;33128;51.580;5.170;2022-10-04T20:11:47;17.00;99.90
47382;DHT22;33128;51.580;5.170;2022-10-04T20:19:17;17.00;99.90
47382;DHT22;33128;51.580;5.170;2022-10-04T20:21:43;17.00;99.90
47382;DHT22;33128;51.580;5.170;2022-10-04T20:24:14;16.90;99.90
47382;DHT22;33128;51.580;5.170;2022-10-04T20:26:41;16.90;99.90
47382;DHT22;33128;51.580;5.170;2022-10-04T20:32:00;16.90;99.90
47382;DHT22;33128;51.580;5.170;2022-10-04T20:34:30;16.90;99.90
47382;DHT22;33128;51.580;5.170;2022-10-04T20:36:57;16.90;99.90
47382;DHT22;33128;51.580;5.170;2022-10-04T20:39:54;16.90;99.90
47382;DHT22;33128;51.580;5.170;2022-10-04T20:42:28;16.90;99.90
47382;DHT22;33128;51.580;5.170;2022-10-04T20:50:04;16.80;99.90
47382;DHT22;33128;51.580;5.170;2022-10-04T20:52:34;16.80;99.90
47382;DHT22;33128;51.580;5.170;2022-10-04T20:55:01;16.80;99.90
47382;DHT22;33128;51.580;5.170;2022-10-04T20:57:30;16.80;99.90
47382;DHT22;33128;51.580;5.170;2022-10-04T20:59:56;16.80;99.90
47382;DHT22;33128;51.580;5.170;2022-10-04T21:02:24;16.70;99.90
47382;DHT22;33128;51.580;5.170;2022-10-04T21:04:52;16.70;99.90
47382;DHT22;33128;51.580;5.170;2022-10-04T21:07:19;16.70;99.90
47382;DHT22;33128;51.580;5.170;2022-10-04T21:09:45;16.70;99.90
47382;DHT22;33128;51.580;5.170;2022-10-04T21:17:38;16.70;99.90
47382;DHT22;33128;51.580;5.170;2022-10-04T21:20:05;16.70;99.90
47382;DHT22;33128;51.580;5.170;2022-10-04T21:22:32;16.70;99.90
47382;DHT22;33128;51.580;5.170;2022-10-04T21:24:58;16.70;99.90
47382;DHT22;33128;51.580;5.170;2022-10-04T21:29:52;16.60;99.90
47382;DHT22;33128;51.580;5.170;2022-10-04T21:32:18;16.60;99.90
47382;DHT22;33128;51.580;5.170;2022-10-04T21:34:44;16.60;99.90
47382;DHT22;33128;51.580;5.170;2022-10-04T21:37:09;16.60;99.90
47382;DHT22;33128;51.580;5.170;2022-10-04T21:39:35;16.60;99.90
47382;DHT22;33128;51.580;5.170;2022-10-04T21:42:00;16.60;99.90
47382;DHT22;33128;51.580;5.170;2022-10-04T21:44:26;16.60;99.90
47382;DHT22;33128;51.580;5.170;2022-10-04T21:46:51;16.60;99.90
47382;DHT22;33128;51.580;5.170;2022-10-04T21:49:17;16.60;99.90
47382;DHT22;33128;51.580;5.170;2022-10-04T21:51:42;16.50;99.90
47382;DHT22;33128;51.580;5.170;2022-10-04T21:54:08;16.50;99.90
47382;DHT22;33128;51.580;5.170;2022-10-04T21:56:33;16.60;99.90
47382;DHT22;33128;51.580;5.170;2022-10-04T21:58:59;16.40;99.90
47382;DHT22;33128;51.580;5.170;2022-10-04T22:01:24;16.40;99.90
47382;DHT22;33128;51.580;5.170;2022-10-04T22:03:50;16.30;99.90
47382;DHT22;33128;51.580;5.170;2022-10-04T22:06:16;16.30;99.90
47382;DHT22;33128;51.580;5.170;2022-10-04T22:08:41;16.30;99.90
47382;DHT22;33128;51.580;5.170;2022-10-04T22:11:09;16.30;99.90
47382;DHT22;33128;51.580;5.170;2022-10-04T22:13:35;16.30;99.90
47382;DHT22;33128;51.580;5.170;2022-10-04T22:16:01;16.20;99.90
47382;DHT22;33128;51.580;5.170;2022-10-04T22:18:30;16.20;99.90
47382;DHT22;33128;51.580;5.170;2022-10-04T22:20:55;16.20;99.90
47382;DHT22;33128;51.580;5.170;2022-10-04T22:23:22;16.20;99.90
47382;DHT22;33128;51.580;5.170;2022-10-04T22:25:48;16.20;99.90
47382;DHT22;33128;51.580;5.170;2022-10-04T22:28:21;16.20;99.90
47382;DHT22;33128;51.580;5.170;2022-10-04T22:30:47;16.10;99.90
47382;DHT22;33128;51.580;5.170;2022-10-04T22:33:35;16.10;99.90
47382;DHT22;33128;51.580;5.170;2022-10-04T22:38:44;16.10;99.90
47382;DHT22;33128;51.580;5.170;2022-10-04T22:41:12;16.20;99.90
47382;DHT22;33128;51.580;5.170;2022-10-04T22:43:38;16.10;99.90
47382;DHT22;33128;51.580;5.170;2022-10-04T22:46:03;16.10;99.90
47382;DHT22;33128;51.580;5.170;2022-10-04T22:48:29;16.10;99.90
47382;DHT22;33128;51.580;5.170;2022-10-04T22:50:55;16.10;99.90
47382;DHT22;33128;51.580;5.170;2022-10-04T22:53:21;16.10;99.90
47382;DHT22;33128;51.580;5.170;2022-10-04T22:55:47;16.10;99.90
47382;DHT22;33128;51.580;5.170;2022-10-04T22:58:13;16.10;99.90
47382;DHT22;33128;51.580;5.170;2022-10-04T23:00:40;16.10;99.90
47382;DHT22;33128;51.580;5.170;2022-10-04T23:05:50;16.10;99.90
47382;DHT22;33128;51.580;5.170;2022-10-04T23:08:16;16.00;99.90
47382;DHT22;33128;51.580;5.170;2022-10-04T23:10:43;16.00;99.90
47382;DHT22;33128;51.580;5.170;2022-10-04T23:13:08;16.00;99.90
47382;DHT22;33128;51.580;5.170;2022-10-04T23:15:34;16.00;99.90
47382;DHT22;33128;51.580;5.170;2022-10-04T23:17:59;16.00;99.90
47382;DHT22;33128;51.580;5.170;2022-10-04T23:20:27;15.90;99.90
47382;DHT22;33128;51.580;5.170;2022-10-04T23:22:53;15.90;99.90
47382;DHT22;33128;51.580;5.170;2022-10-04T23:25:19;16.00;99.90
47382;DHT22;33128;51.580;5.170;2022-10-04T23:27:46;15.90;99.90
47382;DHT22;33128;51.580;5.170;2022-10-04T23:30:16;15.90;99.90
47382;DHT22;33128;51.580;5.170;2022-10-04T23:32:43;15.90;99.90
47382;DHT22;33128;51.580;5.170;2022-10-04T23:35:19;15.90;99.90
47382;DHT22;33128;51.580;5.170;2022-10-04T23:37:45;15.90;99.90
47382;DHT22;33128;51.580;5.170;2022-10-04T23:40:11;15.90;99.90
47382;DHT22;33128;51.580;5.170;2022-10-04T23:42:39;15.90;99.90
47382;DHT22;33128;51.580;5.170;2022-10-04T23:45:10;15.90;99.90
47382;DHT22;33128;51.580;5.170;2022-10-04T23:47:37;15.90;99.90
47382;DHT22;33128;51.580;5.170;2022-10-04T23:50:06;15.90;99.90
47382;DHT22;33128;51.580;5.170;2022-10-04T23:52:39;15.90;99.90
47382;DHT22;33128;51.580;5.170;2022-10-04T23:55:21;15.80;99.90
47382;DHT22;33128;51.580;5.170;2022-10-04T23:57:47;15.80;99.90
